sensor_id;sensor_type;location;lat;lon;timestamp;pressure;altitude;pressure_sealevel;temperature;humidity
11710;BME280;5911;51.036;6.972;2023-05-22T00:00:00;65118.94;;;-141.42;100.00
11710;BME280;5911;51.036;6.972;2023-05-22T00:02:35;65118.94;;;-141.42;100.00
11710;BME280;5911;51.036;6.972;2023-05-22T00:05:07;65118.94;;;-141.42;100.00
11710;BME280;5911;51.036;6.972;2023-05-22T00:07:36;65118.94;;;-141.42;100.00
11710;BME280;5911;51.036;6.972;2023-05-22T00:10:05;65118.94;;;-141.42;100.00
11710;BME280;5911;51.036;6.972;2023-05-22T00:12:33;65118.94;;;-141.42;100.00
11710;BME280;5911;51.036;6.972;2023-05-22T00:15:01;65118.94;;;-141.42;100.00
11710;BME280;5911;51.036;6.972;2023-05-22T00:17:29;65118.94;;;-141.42;100.00
11710;BME280;5911;51.036;6.972;2023-05-22T00:20:01;65118.94;;;-141.42;100.00
11710;BME280;5911;51.036;6.972;2023-05-22T00:22:35;65118.94;;;-141.42;100.00
11710;BME280;5911;51.036;6.972;2023-05-22T00:25:05;65118.94;;;-141.42;100.00
11710;BME280;5911;51.036;6.972;2023-05-22T00:27:33;65118.94;;;-141.42;100.00
11710;BME280;5911;51.036;6.972;2023-05-22T00:30:01;65118.94;;;-141.42;100.00
11710;BME280;5911;51.036;6.972;2023-05-22T00:32:29;65118.94;;;-141.42;100.00
11710;BME280;5911;51.036;6.972;2023-05-22T00:34:57;65118.94;;;-141.42;100.00
11710;BME280;5911;51.036;6.972;2023-05-22T00:37:25;65118.94;;;-141.42;100.00
11710;BME280;5911;51.036;6.972;2023-05-22T00:39:54;65118.94;;;-141.42;100.00
11710;BME280;5911;51.036;6.972;2023-05-22T00:42:22;65118.94;;;-141.42;100.00
11710;BME280;5911;51.036;6.972;2023-05-22T00:44:50;65118.94;;;-141.42;100.00
11710;BME280;5911;51.036;6.972;2023-05-22T00:47:18;65118.94;;;-141.42;100.00
11710;BME280;5911;51.036;6.972;2023-05-22T00:49:46;65118.94;;;-141.42;100.00
11710;BME280;5911;51.036;6.972;2023-05-22T00:52:14;65118.94;;;-141.42;100.00
11710;BME280;5911;51.036;6.972;2023-05-22T00:54:43;65118.94;;;-141.42;100.00
11710;BME280;5911;51.036;6.972;2023-05-22T00:57:13;65118.94;;;-141.42;100.00
11710;BME280;5911;51.036;6.972;2023-05-22T00:59:42;65118.94;;;-141.42;100.00
11710;BME280;5911;51.036;6.972;2023-05-22T01:02:10;65118.94;;;-141.42;100.00
11710;BME280;5911;51.036;6.972;2023-05-22T01:04:39;65118.94;;;-141.42;100.00
11710;BME280;5911;51.036;6.972;2023-05-22T01:07:09;65118.94;;;-141.42;100.00
11710;BME280;5911;51.036;6.972;2023-05-22T01:09:36;65118.94;;;-141.42;100.00
11710;BME280;5911;51.036;6.972;2023-05-22T01:12:10;65118.94;;;-141.42;100.00
11710;BME280;5911;51.036;6.972;2023-05-22T01:14:50;65118.94;;;-141.42;100.00
11710;BME280;5911;51.036;6.972;2023-05-22T01:17:27;65118.94;;;-141.42;100.00
11710;BME280;5911;51.036;6.972;2023-05-22T01:20:09;65118.94;;;-141.42;100.00
11710;BME280;5911;51.036;6.972;2023-05-22T01:22:53;65118.94;;;-141.42;100.00
11710;BME280;5911;51.036;6.972;2023-05-22T01:25:45;65118.94;;;-141.42;100.00
11710;BME280;5911;51.036;6.972;2023-05-22T01:31:14;65118.94;;;-141.42;100.00
11710;BME280;5911;51.036;6.972;2023-05-22T01:33:45;65118.94;;;-141.42;100.00
11710;BME280;5911;51.036;6.972;2023-05-22T01:36:18;65118.94;;;-141.42;100.00
11710;BME280;5911;51.036;6.972;2023-05-22T01:38:48;65118.94;;;-141.42;100.00
11710;BME280;5911;51.036;6.972;2023-05-22T01:41:17;65118.94;;;-141.42;100.00
11710;BME280;5911;51.036;6.972;2023-05-22T01:43:46;65118.94;;;-141.42;100.00
11710;BME280;5911;51.036;6.972;2023-05-22T01:46:15;65118.94;;;-141.42;100.00
11710;BME280;5911;51.036;6.972;2023-05-22T01:48:43;65118.94;;;-141.42;100.00
11710;BME280;5911;51.036;6.972;2023-05-22T01:51:16;65118.94;;;-141.42;100.00
11710;BME280;5911;51.036;6.972;2023-05-22T01:53:50;65118.94;;;-141.42;100.00
11710;BME280;5911;51.036;6.972;2023-05-22T01:56:23;65118.94;;;-141.42;100.00
11710;BME280;5911;51.036;6.972;2023-05-22T01:59:00;65118.94;;;-141.42;100.00
11710;BME280;5911;51.036;6.972;2023-05-22T02:01:34;65118.94;;;-141.42;100.00
11710;BME280;5911;51.036;6.972;2023-05-22T02:04:03;65118.94;;;-141.42;100.00
11710;BME280;5911;51.036;6.972;2023-05-22T02:06:34;65118.94;;;-141.42;100.00
11710;BME280;5911;51.036;6.972;2023-05-22T02:09:02;65118.94;;;-141.42;100.00
11710;BME280;5911;51.036;6.972;2023-05-22T02:11:32;65118.94;;;-141.42;100.00
11710;BME280;5911;51.036;6.972;2023-05-22T02:14:02;65118.94;;;-141.42;100.00
11710;BME280;5911;51.036;6.972;2023-05-22T02:16:31;65118.94;;;-141.42;100.00
11710;BME280;5911;51.036;6.972;2023-05-22T02:19:00;65118.94;;;-141.42;100.00
11710;BME280;5911;51.036;6.972;2023-05-22T02:21:32;65118.94;;;-141.42;100.00
11710;BME280;5911;51.036;6.972;2023-05-22T02:24:01;65118.94;;;-141.42;100.00
11710;BME280;5911;51.036;6.972;2023-05-22T02:26:29;65118.94;;;-141.42;100.00
11710;BME280;5911;51.036;6.972;2023-05-22T02:28:58;65118.94;;;-141.42;100.00
11710;BME280;5911;51.036;6.972;2023-05-22T02:31:26;65118.94;;;-141.42;100.00
11710;BME280;5911;51.036;6.972;2023-05-22T02:33:57;65118.94;;;-141.42;100.00
11710;BME280;5911;51.036;6.972;2023-05-22T02:36:24;65118.94;;;-141.42;100.00
11710;BME280;5911;51.036;6.972;2023-05-22T02:38:53;65118.94;;;-141.42;100.00
11710;BME280;5911;51.036;6.972;2023-05-22T02:41:22;65118.94;;;-141.42;100.00
11710;BME280;5911;51.036;6.972;2023-05-22T02:43:50;65118.94;;;-141.42;100.00
11710;BME280;5911;51.036;6.972;2023-05-22T02:46:18;65118.94;;;-141.42;100.00
11710;BME280;5911;51.036;6.972;2023-05-22T02:48:46;65118.94;;;-141.42;100.00
11710;BME280;5911;51.036;6.972;2023-05-22T02:51:16;65118.94;;;-141.42;100.00
11710;BME280;5911;51.036;6.972;2023-05-22T02:53:44;65118.94;;;-141.42;100.00
11710;BME280;5911;51.036;6.972;2023-05-22T02:56:12;65118.94;;;-141.42;100.00
11710;BME280;5911;51.036;6.972;2023-05-22T02:58:40;65118.94;;;-141.42;100.00
11710;BME280;5911;51.036;6.972;2023-05-22T03:01:08;65118.94;;;-141.42;100.00
11710;BME280;5911;51.036;6.972;2023-05-22T03:03:36;65118.94;;;-141.42;100.00
11710;BME280;5911;51.036;6.972;2023-05-22T03:06:05;65118.94;;;-141.42;100.00
11710;BME280;5911;51.036;6.972;2023-05-22T03:08:35;65118.94;;;-141.42;100.00
11710;BME280;5911;51.036;6.972;2023-05-22T03:11:09;65118.94;;;-141.42;100.00
11710;BME280;5911;51.036;6.972;2023-05-22T03:13:37;65118.94;;;-141.42;100.00
11710;BME280;5911;51.036;6.972;2023-05-22T03:16:05;65118.94;;;-141.42;100.00
11710;BME280;5911;51.036;6.972;2023-05-22T03:18:37;65118.94;;;-141.42;100.00
11710;BME280;5911;51.036;6.972;2023-05-22T03:21:05;65118.94;;;-141.42;100.00
11710;BME280;5911;51.036;6.972;2023-05-22T03:23:33;65118.94;;;-141.42;100.00
11710;BME280;5911;51.036;6.972;2023-05-22T03:26:02;65118.94;;;-141.42;100.00
11710;BME280;5911;51.036;6.972;2023-05-22T03:28:34;65118.94;;;-141.42;100.00
11710;BME280;5911;51.036;6.972;2023-05-22T03:31:02;65118.94;;;-141.42;100.00
11710;BME280;5911;51.036;6.972;2023-05-22T03:33:38;65118.94;;;-141.42;100.00
11710;BME280;5911;51.036;6.972;2023-05-22T03:36:07;65118.94;;;-141.42;100.00
11710;BME280;5911;51.036;6.972;2023-05-22T03:38:35;65118.94;;;-141.42;100.00
11710;BME280;5911;51.036;6.972;2023-05-22T03:41:05;65118.94;;;-141.42;100.00
11710;BME280;5911;51.036;6.972;2023-05-22T03:43:33;65118.94;;;-141.42;100.00
11710;BME280;5911;51.036;6.972;2023-05-22T03:46:01;65118.94;;;-141.42;100.00
11710;BME280;5911;51.036;6.972;2023-05-22T03:48:29;65118.94;;;-141.42;100.00
11710;BME280;5911;51.036;6.972;2023-05-22T03:50:57;65118.94;;;-141.42;100.00
11710;BME280;5911;51.036;6.972;2023-05-22T03:53:25;65118.94;;;-141.42;100.00
11710;BME280;5911;51.036;6.972;2023-05-22T03:55:53;65118.94;;;-141.42;100.00
11710;BME280;5911;51.036;6.972;2023-05-22T03:58:24;65118.94;;;-141.42;100.00
11710;BME280;5911;51.036;6.972;2023-05-22T04:00:53;65118.94;;;-141.42;100.00
11710;BME280;5911;51.036;6.972;2023-05-22T04:03:25;65118.94;;;-141.42;100.00
11710;BME280;5911;51.036;6.972;2023-05-22T04:05:53;65118.94;;;-141.42;100.00
11710;BME280;5911;51.036;6.972;2023-05-22T04:09:30;100522.81;;;18.23;100.00
11710;BME280;5911;51.036;6.972;2023-05-22T04:11:58;100523.81;;;18.22;100.00
11710;BME280;5911;51.036;6.972;2023-05-22T04:14:27;100531.13;;;18.28;100.00
11710;BME280;5911;51.036;6.972;2023-05-22T04:16:55;100537.13;;;18.31;100.00
11710;BME280;5911;51.036;6.972;2023-05-22T04:19:23;100538.81;;;18.32;100.00
11710;BME280;5911;51.036;6.972;2023-05-22T04:21:53;100547.09;;;18.37;100.00
11710;BME280;5911;51.036;6.972;2023-05-22T04:24:21;100533.09;;;18.35;100.00
11710;BME280;5911;51.036;6.972;2023-05-22T04:26:51;100544.91;;;18.40;100.00
11710;BME280;5911;51.036;6.972;2023-05-22T04:29:19;100527.47;;;18.30;100.00
11710;BME280;5911;51.036;6.972;2023-05-22T04:31:47;100533.28;;;18.33;100.00
11710;BME280;5911;51.036;6.972;2023-05-22T04:34:16;100548.06;;;18.44;100.00
11710;BME280;5911;51.036;6.972;2023-05-22T04:36:44;100550.38;;;18.47;100.00
11710;BME280;5911;51.036;6.972;2023-05-22T04:39:13;100557.38;;;18.48;100.00
11710;BME280;5911;51.036;6.972;2023-05-22T04:41:41;100547.41;;;18.42;100.00
11710;BME280;5911;51.036;6.972;2023-05-22T04:44:12;100562.34;;;18.51;100.00
11710;BME280;5911;51.036;6.972;2023-05-22T04:46:40;100558.69;;;18.52;100.00
11710;BME280;5911;51.036;6.972;2023-05-22T04:49:09;100552.03;;;18.48;100.00
11710;BME280;5911;51.036;6.972;2023-05-22T04:51:37;100554.50;;;18.49;100.00
11710;BME280;5911;51.036;6.972;2023-05-22T04:54:05;100551.22;;;18.47;100.00
11710;BME280;5911;51.036;6.972;2023-05-22T04:56:33;100547.72;;;18.47;100.00
11710;BME280;5911;51.036;6.972;2023-05-22T04:59:03;100553.22;;;18.45;100.00
11710;BME280;5911;51.036;6.972;2023-05-22T05:01:35;100554.06;;;18.46;100.00
11710;BME280;5911;51.036;6.972;2023-05-22T05:04:03;100547.75;;;18.39;100.00
11710;BME280;5911;51.036;6.972;2023-05-22T05:06:32;100538.97;;;18.30;100.00
11710;BME280;5911;51.036;6.972;2023-05-22T05:09:01;100544.41;;;18.37;100.00
11710;BME280;5911;51.036;6.972;2023-05-22T05:11:29;100549.84;;;18.28;100.00
11710;BME280;5911;51.036;6.972;2023-05-22T05:13:57;100550.50;;;18.31;100.00
11710;BME280;5911;51.036;6.972;2023-05-22T05:16:25;100548.66;;;18.31;100.00
11710;BME280;5911;51.036;6.972;2023-05-22T05:18:55;100550.66;;;18.29;100.00
11710;BME280;5911;51.036;6.972;2023-05-22T05:21:23;100525.91;;;18.12;100.00
11710;BME280;5911;51.036;6.972;2023-05-22T05:23:55;100546.34;;;18.28;100.00
11710;BME280;5911;51.036;6.972;2023-05-22T05:26:23;100556.19;;;18.27;100.00
11710;BME280;5911;51.036;6.972;2023-05-22T05:28:53;100561.03;;;18.24;100.00
11710;BME280;5911;51.036;6.972;2023-05-22T05:31:23;100560.19;;;18.23;100.00
11710;BME280;5911;51.036;6.972;2023-05-22T05:34:18;100561.88;;;18.24;100.00
11710;BME280;5911;51.036;6.972;2023-05-22T05:36:58;100562.03;;;18.23;100.00
11710;BME280;5911;51.036;6.972;2023-05-22T05:39:25;100559.84;;;18.26;100.00
11710;BME280;5911;51.036;6.972;2023-05-22T05:41:55;100561.03;;;18.24;100.00
11710;BME280;5911;51.036;6.972;2023-05-22T05:44:22;100567.56;;;18.21;100.00
11710;BME280;5911;51.036;6.972;2023-05-22T05:46:50;100577.53;;;18.27;100.00
11710;BME280;5911;51.036;6.972;2023-05-22T05:49:22;100577.53;;;18.27;100.00
11710;BME280;5911;51.036;6.972;2023-05-22T05:51:53;100576.22;;;18.23;100.00
11710;BME280;5911;51.036;6.972;2023-05-22T05:54:22;100575.19;;;18.33;100.00
11710;BME280;5911;51.036;6.972;2023-05-22T05:56:53;100582.06;;;18.27;100.00
11710;BME280;5911;51.036;6.972;2023-05-22T05:59:23;100559.78;;;18.12;100.00
11710;BME280;5911;51.036;6.972;2023-05-22T06:02:16;100585.88;;;18.33;100.00
11710;BME280;5911;51.036;6.972;2023-05-22T06:04:49;100556.41;;;18.18;100.00
11710;BME280;5911;51.036;6.972;2023-05-22T06:07:21;100594.66;;;18.41;100.00
11710;BME280;5911;51.036;6.972;2023-05-22T06:09:54;100582.16;;;18.34;100.00
11710;BME280;5911;51.036;6.972;2023-05-22T06:13:00;100570.88;;;18.23;100.00
11710;BME280;5911;51.036;6.972;2023-05-22T06:15:30;100593.28;;;18.45;100.00
11710;BME280;5911;51.036;6.972;2023-05-22T06:18:01;100597.25;;;18.49;100.00
11710;BME280;5911;51.036;6.972;2023-05-22T06:20:30;100595.13;;;18.45;100.00
11710;BME280;5911;51.036;6.972;2023-05-22T06:22:59;100602.16;;;18.46;100.00
11710;BME280;5911;51.036;6.972;2023-05-22T06:25:26;100589.31;;;18.41;100.00
11710;BME280;5911;51.036;6.972;2023-05-22T06:27:56;100588.13;;;18.44;100.00
11710;BME280;5911;51.036;6.972;2023-05-22T06:30:24;100596.44;;;18.49;100.00
11710;BME280;5911;51.036;6.972;2023-05-22T06:33:08;100589.91;;;18.51;100.00
11710;BME280;5911;51.036;6.972;2023-05-22T06:35:38;100595.91;;;18.53;100.00
11710;BME280;5911;51.036;6.972;2023-05-22T06:38:06;100599.75;;;18.51;100.00
11710;BME280;5911;51.036;6.972;2023-05-22T06:40:34;100607.59;;;18.52;100.00
11710;BME280;5911;51.036;6.972;2023-05-22T06:43:14;100611.28;;;18.51;100.00
11710;BME280;5911;51.036;6.972;2023-05-22T06:45:50;100604.50;;;18.41;100.00
11710;BME280;5911;51.036;6.972;2023-05-22T06:48:18;100613.84;;;18.45;100.00
11710;BME280;5911;51.036;6.972;2023-05-22T06:51:05;100612.59;;;18.55;100.00
11710;BME280;5911;51.036;6.972;2023-05-22T06:53:35;100618.94;;;18.54;100.00
11710;BME280;5911;51.036;6.972;2023-05-22T06:56:09;100622.44;;;18.55;100.00
11710;BME280;5911;51.036;6.972;2023-05-22T06:58:50;100619.59;;;18.56;100.00
11710;BME280;5911;51.036;6.972;2023-05-22T07:01:35;100624.47;;;18.53;100.00
11710;BME280;5911;51.036;6.972;2023-05-22T07:04:08;100595.47;;;18.42;100.00
11710;BME280;5911;51.036;6.972;2023-05-22T07:06:50;100620.13;;;18.52;100.00
11710;BME280;5911;51.036;6.972;2023-05-22T07:09:18;100594.66;;;18.41;100.00
11710;BME280;5911;51.036;6.972;2023-05-22T07:11:47;100633.75;;;18.65;100.00
11710;BME280;5911;51.036;6.972;2023-05-22T07:14:16;100633.06;;;18.71;100.00
11710;BME280;5911;51.036;6.972;2023-05-22T07:16:47;100631.09;;;18.65;100.00
11710;BME280;5911;51.036;6.972;2023-05-22T07:19:21;100629.41;;;18.64;100.00
11710;BME280;5911;51.036;6.972;2023-05-22T07:21:50;100630.47;;;18.63;100.00
11710;BME280;5911;51.036;6.972;2023-05-22T07:24:20;100631.56;;;18.69;100.00
11710;BME280;5911;51.036;6.972;2023-05-22T07:26:49;100635.25;;;18.68;100.00
11710;BME280;5911;51.036;6.972;2023-05-22T07:29:19;100633.91;;;18.72;100.00
11710;BME280;5911;51.036;6.972;2023-05-22T07:31:51;100635.81;;;18.63;100.00
11710;BME280;5911;51.036;6.972;2023-05-22T07:34:22;100639.47;;;18.62;100.00
11710;BME280;5911;51.036;6.972;2023-05-22T07:36:58;100627.31;;;18.59;100.00
11710;BME280;5911;51.036;6.972;2023-05-22T07:39:27;100636.81;;;18.62;100.00
11710;BME280;5911;51.036;6.972;2023-05-22T07:41:55;100645.09;;;18.67;100.00
11710;BME280;5911;51.036;6.972;2023-05-22T07:44:26;100628.78;;;18.54;100.00
11710;BME280;5911;51.036;6.972;2023-05-22T07:46:54;100654.44;;;18.71;100.00
11710;BME280;5911;51.036;6.972;2023-05-22T07:49:25;100655.78;;;18.67;100.00
11710;BME280;5911;51.036;6.972;2023-05-22T07:51:53;100649.78;;;18.65;100.00
11710;BME280;5911;51.036;6.972;2023-05-22T07:54:25;100652.78;;;18.70;100.00
11710;BME280;5911;51.036;6.972;2023-05-22T07:56:53;100649.28;;;18.70;100.00
11710;BME280;5911;51.036;6.972;2023-05-22T07:59:24;100650.41;;;18.75;100.00
11710;BME280;5911;51.036;6.972;2023-05-22T08:01:56;100653.75;;;18.77;100.00
11710;BME280;5911;51.036;6.972;2023-05-22T08:04:24;100643.81;;;18.63;100.00
11710;BME280;5911;51.036;6.972;2023-05-22T08:06:53;100653.59;;;18.71;100.00
11710;BME280;5911;51.036;6.972;2023-05-22T08:09:21;100658.25;;;18.77;100.00
11710;BME280;5911;51.036;6.972;2023-05-22T08:11:50;100647.84;;;18.82;100.00
11710;BME280;5911;51.036;6.972;2023-05-22T08:14:17;100654.34;;;18.87;100.00
11710;BME280;5911;51.036;6.972;2023-05-22T08:16:45;100647.81;;;18.90;100.00
11710;BME280;5911;51.036;6.972;2023-05-22T08:19:13;100653.97;;;18.90;100.00
11710;BME280;5911;51.036;6.972;2023-05-22T08:21:41;100657.94;;;18.94;100.00
11710;BME280;5911;51.036;6.972;2023-05-22T08:24:09;100652.66;;;18.86;100.00
11710;BME280;5911;51.036;6.972;2023-05-22T08:26:37;100650.66;;;18.88;100.00
11710;BME280;5911;51.036;6.972;2023-05-22T08:29:07;100656.47;;;18.92;100.00
11710;BME280;5911;51.036;6.972;2023-05-22T08:31:34;100657.94;;;18.94;100.00
11710;BME280;5911;51.036;6.972;2023-05-22T08:34:02;100655.66;;;18.91;100.00
11710;BME280;5911;51.036;6.972;2023-05-22T08:36:31;100668.63;;;18.94;100.00
11710;BME280;5911;51.036;6.972;2023-05-22T08:39:01;100654.91;;;18.97;100.00
11710;BME280;5911;51.036;6.972;2023-05-22T08:41:29;100663.13;;;18.96;100.00
11710;BME280;5911;51.036;6.972;2023-05-22T08:43:57;100671.44;;;19.01;100.00
11710;BME280;5911;51.036;6.972;2023-05-22T08:46:27;100670.09;;;19.05;100.00
11710;BME280;5911;51.036;6.972;2023-05-22T08:48:57;100649.56;;;18.97;100.00
11710;BME280;5911;51.036;6.972;2023-05-22T08:51:28;100646.91;;;18.97;100.00
11710;BME280;5911;51.036;6.972;2023-05-22T08:53:57;100676.00;;;19.15;100.00
11710;BME280;5911;51.036;6.972;2023-05-22T08:56:26;100673.50;;;19.14;100.00
11710;BME280;5911;51.036;6.972;2023-05-22T08:58:56;100668.47;;;19.19;100.00
11710;BME280;5911;51.036;6.972;2023-05-22T09:01:27;100675.97;;;19.23;100.00
11710;BME280;5911;51.036;6.972;2023-05-22T09:03:58;100669.47;;;19.18;100.00
11710;BME280;5911;51.036;6.972;2023-05-22T09:06:27;100670.13;;;19.20;100.00
11710;BME280;5911;51.036;6.972;2023-05-22T09:08:55;100671.50;;;19.16;100.00
11710;BME280;5911;51.036;6.972;2023-05-22T09:11:24;100672.81;;;19.20;100.00
11710;BME280;5911;51.036;6.972;2023-05-22T09:13:52;100680.09;;;19.26;100.00
11710;BME280;5911;51.036;6.972;2023-05-22T09:16:20;100682.22;;;19.30;100.00
11710;BME280;5911;51.036;6.972;2023-05-22T09:18:49;100681.41;;;19.30;100.00
11710;BME280;5911;51.036;6.972;2023-05-22T09:21:17;100676.72;;;19.32;100.00
11710;BME280;5911;51.036;6.972;2023-05-22T09:23:58;100680.69;;;19.36;100.00
11710;BME280;5911;51.036;6.972;2023-05-22T09:26:27;100683.84;;;19.40;100.00
11710;BME280;5911;51.036;6.972;2023-05-22T09:28:57;100683.63;;;19.41;100.00
11710;BME280;5911;51.036;6.972;2023-05-22T09:31:27;100686.53;;;19.40;100.00
11710;BME280;5911;51.036;6.972;2023-05-22T09:33:57;100681.97;;;19.40;100.00
11710;BME280;5911;51.036;6.972;2023-05-22T09:36:31;100682.72;;;19.34;100.00
11710;BME280;5911;51.036;6.972;2023-05-22T09:39:00;100684.38;;;19.35;100.00
11710;BME280;5911;51.036;6.972;2023-05-22T09:41:33;100683.91;;;19.31;100.00
11710;BME280;5911;51.036;6.972;2023-05-22T09:44:06;100680.69;;;19.36;100.00
11710;BME280;5911;51.036;6.972;2023-05-22T09:46:39;100684.72;;;19.32;100.00
11710;BME280;5911;51.036;6.972;2023-05-22T09:49:08;100686.31;;;19.41;100.00
11710;BME280;5911;51.036;6.972;2023-05-22T09:51:41;100686.13;;;19.43;100.00
11710;BME280;5911;51.036;6.972;2023-05-22T09:54:14;100683.00;;;19.39;100.00
11710;BME280;5911;51.036;6.972;2023-05-22T09:56:43;100689.38;;;19.38;100.00
11710;BME280;5911;51.036;6.972;2023-05-22T09:59:12;100691.03;;;19.39;100.00
11710;BME280;5911;51.036;6.972;2023-05-22T10:01:40;100691.97;;;19.46;100.00
11710;BME280;5911;51.036;6.972;2023-05-22T10:04:12;100685.31;;;19.42;100.00
11710;BME280;5911;51.036;6.972;2023-05-22T10:06:41;100689.66;;;19.43;100.00
11710;BME280;5911;51.036;6.972;2023-05-22T10:09:14;100685.44;;;19.49;100.00
11710;BME280;5911;51.036;6.972;2023-05-22T10:11:46;100691.72;;;19.56;100.00
11710;BME280;5911;51.036;6.972;2023-05-22T10:14:17;100691.94;;;19.54;100.00
11710;BME280;5911;51.036;6.972;2023-05-22T10:16:45;100687.97;;;19.65;100.00
11710;BME280;5911;51.036;6.972;2023-05-22T10:19:16;100702.28;;;19.72;100.00
11710;BME280;5911;51.036;6.972;2023-05-22T10:21:44;100686.50;;;19.62;100.00
11710;BME280;5911;51.036;6.972;2023-05-22T10:24:13;100690.66;;;19.65;100.00
11710;BME280;5911;51.036;6.972;2023-05-22T10:26:41;100686.13;;;19.65;100.00
11710;BME280;5911;51.036;6.972;2023-05-22T10:29:13;100692.78;;;19.70;100.00
11710;BME280;5911;51.036;6.972;2023-05-22T10:31:46;100681.34;;;19.76;100.00
11710;BME280;5911;51.036;6.972;2023-05-22T10:34:29;100693.06;;;19.89;100.00
11710;BME280;5911;51.036;6.972;2023-05-22T10:37:13;100686.53;;;19.92;100.00
11710;BME280;5911;51.036;6.972;2023-05-22T10:39:55;100684.97;;;19.97;100.00
11710;BME280;5911;51.036;6.972;2023-05-22T10:42:28;100676.00;;;20.05;100.00
11710;BME280;5911;51.036;6.972;2023-05-22T10:44:59;100679.69;;;20.04;100.00
11710;BME280;5911;51.036;6.972;2023-05-22T10:47:26;100683.38;;;20.03;100.00
11710;BME280;5911;51.036;6.972;2023-05-22T10:50:06;100675.09;;;19.98;100.00
11710;BME280;5911;51.036;6.972;2023-05-22T10:52:34;100676.28;;;20.10;100.00
11710;BME280;5911;51.036;6.972;2023-05-22T10:55:05;100670.91;;;20.10;100.00
11710;BME280;5911;51.036;6.972;2023-05-22T10:57:36;100667.88;;;20.13;100.00
11710;BME280;5911;51.036;6.972;2023-05-22T11:00:09;100671.19;;;20.15;100.00
11710;BME280;5911;51.036;6.972;2023-05-22T11:02:39;100669.78;;;20.19;100.00
11710;BME280;5911;51.036;6.972;2023-05-22T11:05:38;100663.88;;;20.24;100.00
11710;BME280;5911;51.036;6.972;2023-05-22T11:08:09;100666.09;;;20.20;100.00
11710;BME280;5911;51.036;6.972;2023-05-22T11:10:57;100674.22;;;20.27;100.00
11710;BME280;5911;51.036;6.972;2023-05-22T11:13:37;100671.56;;;20.42;100.00
11710;BME280;5911;51.036;6.972;2023-05-22T11:16:06;100657.56;;;20.61;100.00
11710;BME280;5911;51.036;6.972;2023-05-22T11:18:34;100656.16;;;20.65;100.00
11710;BME280;5911;51.036;6.972;2023-05-22T11:21:04;100661.13;;;20.68;100.00
11710;BME280;5911;51.036;6.972;2023-05-22T11:23:33;100663.53;;;20.63;100.00
11710;BME280;5911;51.036;6.972;2023-05-22T11:26:20;100661.91;;;20.62;100.00
11710;BME280;5911;51.036;6.972;2023-05-22T11:28:53;100660.16;;;20.54;100.00
11710;BME280;5911;51.036;6.972;2023-05-22T11:31:22;100654.34;;;20.51;100.00
11710;BME280;5911;51.036;6.972;2023-05-22T11:33:50;100656.34;;;20.63;100.00
11710;BME280;5911;51.036;6.972;2023-05-22T11:36:19;100654.09;;;20.67;100.00
11710;BME280;5911;51.036;6.972;2023-05-22T11:38:47;100652.91;;;20.69;100.00
11710;BME280;5911;51.036;6.972;2023-05-22T11:41:15;100656.63;;;20.90;100.00
11710;BME280;5911;51.036;6.972;2023-05-22T11:43:43;100655.78;;;21.11;100.00
11710;BME280;5911;51.036;6.972;2023-05-22T11:46:10;100652.06;;;21.12;100.00
11710;BME280;5911;51.036;6.972;2023-05-22T11:48:40;100642.88;;;20.99;100.00
11710;BME280;5911;51.036;6.972;2023-05-22T11:51:08;100645.53;;;21.70;100.00
11710;BME280;5911;51.036;6.972;2023-05-22T11:53:39;100647.56;;;21.96;100.00
11710;BME280;5911;51.036;6.972;2023-05-22T11:56:07;100641.50;;;22.15;100.00
11710;BME280;5911;51.036;6.972;2023-05-22T11:58:35;100646.66;;;21.82;100.00
11710;BME280;5911;51.036;6.972;2023-05-22T12:01:04;100629.34;;;21.91;100.00
11710;BME280;5911;51.036;6.972;2023-05-22T12:03:32;100635.97;;;22.36;100.00
11710;BME280;5911;51.036;6.972;2023-05-22T12:06:00;100644.47;;;22.46;100.00
11710;BME280;5911;51.036;6.972;2023-05-22T12:08:28;100633.97;;;22.52;100.00
11710;BME280;5911;51.036;6.972;2023-05-22T12:10:58;100632.94;;;22.66;100.00
11710;BME280;5911;51.036;6.972;2023-05-22T12:13:27;100632.81;;;22.94;100.00
11710;BME280;5911;51.036;6.972;2023-05-22T12:15:57;100632.84;;;23.33;100.00
11710;BME280;5911;51.036;6.972;2023-05-22T12:18:26;100634.91;;;23.18;100.00
11710;BME280;5911;51.036;6.972;2023-05-22T12:20:54;100633.03;;;23.12;100.00
11710;BME280;5911;51.036;6.972;2023-05-22T12:23:23;100625.81;;;23.52;100.00
11710;BME280;5911;51.036;6.972;2023-05-22T12:25:57;100635.91;;;23.76;100.00
11710;BME280;5911;51.036;6.972;2023-05-22T12:28:25;100634.84;;;23.97;100.00
11710;BME280;5911;51.036;6.972;2023-05-22T12:30:54;100635.16;;;24.20;100.00
11710;BME280;5911;51.036;6.972;2023-05-22T12:33:26;100624.31;;;24.40;100.00
11710;BME280;5911;51.036;6.972;2023-05-22T12:35:54;100615.25;;;24.28;100.00
11710;BME280;5911;51.036;6.972;2023-05-22T12:38:24;100629.31;;;24.37;100.00
11710;BME280;5911;51.036;6.972;2023-05-22T12:40:53;100621.66;;;24.65;100.00
11710;BME280;5911;51.036;6.972;2023-05-22T12:43:23;100620.50;;;24.86;100.00
11710;BME280;5911;51.036;6.972;2023-05-22T12:45:52;100609.50;;;24.87;100.00
11710;BME280;5911;51.036;6.972;2023-05-22T12:48:20;100623.31;;;25.04;100.00
11710;BME280;5911;51.036;6.972;2023-05-22T12:50:48;100614.41;;;25.22;100.00
11710;BME280;5911;51.036;6.972;2023-05-22T12:53:16;100617.94;;;25.22;100.00
11710;BME280;5911;51.036;6.972;2023-05-22T12:55:44;100611.47;;;25.05;100.00
11710;BME280;5911;51.036;6.972;2023-05-22T12:58:11;100621.06;;;25.44;100.00
11710;BME280;5911;51.036;6.972;2023-05-22T13:00:41;100615.81;;;25.74;100.00
11710;BME280;5911;51.036;6.972;2023-05-22T13:03:08;100616.13;;;25.66;100.00
11710;BME280;5911;51.036;6.972;2023-05-22T13:05:37;100618.97;;;25.89;100.00
11710;BME280;5911;51.036;6.972;2023-05-22T13:08:06;100618.59;;;25.86;99.02